sensor_id;sensor_type;location;lat;lon;timestamp;P1;durP1;ratioP1;P2;durP2;ratioP2
68940;SDS011;55982;51.476;7.552;2023-07-02T00:01:02;8.75;;;7.10;;
68940;SDS011;55982;51.476;7.552;2023-07-02T00:03:28;9.57;;;7.53;;
68940;SDS011;55982;51.476;7.552;2023-07-02T00:05:54;12.00;;;7.20;;
68940;SDS011;55982;51.476;7.552;2023-07-02T00:08:21;11.45;;;7.57;;
68940;SDS011;55982;51.476;7.552;2023-07-02T00:10:47;12.52;;;7.68;;
68940;SDS011;55982;51.476;7.552;2023-07-02T00:13:13;10.95;;;7.47;;
68940;SDS011;55982;51.476;7.552;2023-07-02T00:15:39;10.88;;;7.38;;
68940;SDS011;55982;51.476;7.552;2023-07-02T00:18:04;10.48;;;7.47;;
68940;SDS011;55982;51.476;7.552;2023-07-02T00:20:29;9.70;;;6.95;;
68940;SDS011;55982;51.476;7.552;2023-07-02T00:22:59;8.48;;;7.13;;
68940;SDS011;55982;51.476;7.552;2023-07-02T00:25:25;11.32;;;7.15;;
68940;SDS011;55982;51.476;7.552;2023-07-02T00:27:50;8.35;;;6.60;;
68940;SDS011;55982;51.476;7.552;2023-07-02T00:30:16;7.85;;;7.05;;
68940;SDS011;55982;51.476;7.552;2023-07-02T00:32:41;12.65;;;7.15;;
68940;SDS011;55982;51.476;7.552;2023-07-02T00:35:07;13.15;;;7.07;;
68940;SDS011;55982;51.476;7.552;2023-07-02T00:37:32;13.07;;;7.10;;
68940;SDS011;55982;51.476;7.552;2023-07-02T00:39:57;12.00;;;7.07;;
68940;SDS011;55982;51.476;7.552;2023-07-02T00:42:23;10.70;;;6.72;;
68940;SDS011;55982;51.476;7.552;2023-07-02T00:44:48;11.82;;;7.63;;
68940;SDS011;55982;51.476;7.552;2023-07-02T00:47:14;9.88;;;7.32;;
68940;SDS011;55982;51.476;7.552;2023-07-02T00:49:41;12.02;;;6.88;;
68940;SDS011;55982;51.476;7.552;2023-07-02T00:52:06;9.80;;;6.35;;
68940;SDS011;55982;51.476;7.552;2023-07-02T00:54:32;10.10;;;6.68;;
68940;SDS011;55982;51.476;7.552;2023-07-02T00:56:57;10.20;;;6.53;;
68940;SDS011;55982;51.476;7.552;2023-07-02T00:59:28;13.00;;;6.72;;
68940;SDS011;55982;51.476;7.552;2023-07-02T01:01:54;12.48;;;6.82;;
68940;SDS011;55982;51.476;7.552;2023-07-02T01:04:22;12.10;;;5.82;;
68940;SDS011;55982;51.476;7.552;2023-07-02T01:06:52;10.63;;;6.70;;
68940;SDS011;55982;51.476;7.552;2023-07-02T01:09:22;13.15;;;6.45;;
68940;SDS011;55982;51.476;7.552;2023-07-02T01:11:52;11.68;;;6.18;;
68940;SDS011;55982;51.476;7.552;2023-07-02T01:14:25;10.88;;;6.30;;
68940;SDS011;55982;51.476;7.552;2023-07-02T01:16:52;12.57;;;6.20;;
68940;SDS011;55982;51.476;7.552;2023-07-02T01:19:19;13.50;;;6.95;;
68940;SDS011;55982;51.476;7.552;2023-07-02T01:21:50;11.13;;;6.32;;
68940;SDS011;55982;51.476;7.552;2023-07-02T01:24:16;15.02;;;6.32;;
68940;SDS011;55982;51.476;7.552;2023-07-02T01:26:42;12.80;;;6.50;;
68940;SDS011;55982;51.476;7.552;2023-07-02T01:29:17;12.10;;;6.63;;
68940;SDS011;55982;51.476;7.552;2023-07-02T01:34:09;12.73;;;6.43;;
68940;SDS011;55982;51.476;7.552;2023-07-02T01:36:35;10.45;;;6.53;;
68940;SDS011;55982;51.476;7.552;2023-07-02T01:39:01;14.02;;;6.60;;
68940;SDS011;55982;51.476;7.552;2023-07-02T01:41:27;11.20;;;6.63;;
68940;SDS011;55982;51.476;7.552;2023-07-02T01:43:52;11.30;;;6.72;;
68940;SDS011;55982;51.476;7.552;2023-07-02T01:46:18;15.15;;;6.85;;
68940;SDS011;55982;51.476;7.552;2023-07-02T01:48:43;14.60;;;6.72;;
68940;SDS011;55982;51.476;7.552;2023-07-02T01:51:08;14.30;;;7.68;;
68940;SDS011;55982;51.476;7.552;2023-07-02T01:53:33;17.10;;;8.68;;
68940;SDS011;55982;51.476;7.552;2023-07-02T01:55:59;15.88;;;8.75;;
68940;SDS011;55982;51.476;7.552;2023-07-02T01:58:24;15.30;;;8.40;;
68940;SDS011;55982;51.476;7.552;2023-07-02T02:00:50;18.20;;;8.85;;
68940;SDS011;55982;51.476;7.552;2023-07-02T02:03:15;15.55;;;8.68;;
68940;SDS011;55982;51.476;7.552;2023-07-02T02:05:40;14.45;;;8.50;;
68940;SDS011;55982;51.476;7.552;2023-07-02T02:08:06;15.85;;;9.02;;
68940;SDS011;55982;51.476;7.552;2023-07-02T02:10:31;15.05;;;8.30;;
68940;SDS011;55982;51.476;7.552;2023-07-02T02:12:56;18.25;;;8.23;;
68940;SDS011;55982;51.476;7.552;2023-07-02T02:15:22;13.10;;;8.52;;
68940;SDS011;55982;51.476;7.552;2023-07-02T02:17:47;18.23;;;8.75;;
68940;SDS011;55982;51.476;7.552;2023-07-02T02:20:13;19.77;;;8.30;;
68940;SDS011;55982;51.476;7.552;2023-07-02T02:22:38;18.98;;;8.88;;
68940;SDS011;55982;51.476;7.552;2023-07-02T02:25:03;15.45;;;7.85;;
68940;SDS011;55982;51.476;7.552;2023-07-02T02:27:29;14.70;;;8.30;;
68940;SDS011;55982;51.476;7.552;2023-07-02T02:29:54;15.45;;;7.22;;
68940;SDS011;55982;51.476;7.552;2023-07-02T02:32:19;16.20;;;7.22;;
68940;SDS011;55982;51.476;7.552;2023-07-02T02:34:46;21.20;;;7.30;;
68940;SDS011;55982;51.476;7.552;2023-07-02T02:37:12;21.00;;;8.02;;
68940;SDS011;55982;51.476;7.552;2023-07-02T02:39:37;13.35;;;7.20;;
68940;SDS011;55982;51.476;7.552;2023-07-02T02:42:03;16.25;;;7.13;;
68940;SDS011;55982;51.476;7.552;2023-07-02T02:44:28;19.92;;;8.63;;
68940;SDS011;55982;51.476;7.552;2023-07-02T02:46:54;19.70;;;8.05;;
68940;SDS011;55982;51.476;7.552;2023-07-02T02:49:20;18.90;;;8.32;;
68940;SDS011;55982;51.476;7.552;2023-07-02T02:51:46;16.55;;;8.15;;
68940;SDS011;55982;51.476;7.552;2023-07-02T02:54:11;17.92;;;7.90;;
68940;SDS011;55982;51.476;7.552;2023-07-02T02:56:36;17.60;;;7.80;;
68940;SDS011;55982;51.476;7.552;2023-07-02T02:59:02;19.73;;;8.50;;
68940;SDS011;55982;51.476;7.552;2023-07-02T03:01:27;19.98;;;7.93;;
68940;SDS011;55982;51.476;7.552;2023-07-02T03:03:57;20.33;;;8.13;;
68940;SDS011;55982;51.476;7.552;2023-07-02T03:06:23;19.40;;;9.25;;
68940;SDS011;55982;51.476;7.552;2023-07-02T03:08:49;20.33;;;8.65;;
68940;SDS011;55982;51.476;7.552;2023-07-02T03:11:15;18.08;;;8.40;;
68940;SDS011;55982;51.476;7.552;2023-07-02T03:13:40;24.27;;;8.80;;
68940;SDS011;55982;51.476;7.552;2023-07-02T03:16:05;24.33;;;8.57;;
68940;SDS011;55982;51.476;7.552;2023-07-02T03:18:31;24.90;;;9.13;;
68940;SDS011;55982;51.476;7.552;2023-07-02T03:20:57;24.05;;;9.80;;
68940;SDS011;55982;51.476;7.552;2023-07-02T03:23:22;21.88;;;9.57;;
68940;SDS011;55982;51.476;7.552;2023-07-02T03:25:48;22.27;;;9.68;;
68940;SDS011;55982;51.476;7.552;2023-07-02T03:28:13;22.38;;;10.52;;
68940;SDS011;55982;51.476;7.552;2023-07-02T03:30:39;23.48;;;10.50;;
68940;SDS011;55982;51.476;7.552;2023-07-02T03:33:04;28.13;;;10.38;;
68940;SDS011;55982;51.476;7.552;2023-07-02T03:35:29;23.33;;;10.88;;
68940;SDS011;55982;51.476;7.552;2023-07-02T03:37:55;31.75;;;11.70;;
68940;SDS011;55982;51.476;7.552;2023-07-02T03:40:22;27.38;;;11.70;;
68940;SDS011;55982;51.476;7.552;2023-07-02T03:42:48;32.42;;;11.63;;
68940;SDS011;55982;51.476;7.552;2023-07-02T03:45:13;25.73;;;11.43;;
68940;SDS011;55982;51.476;7.552;2023-07-02T03:47:39;24.08;;;12.30;;
68940;SDS011;55982;51.476;7.552;2023-07-02T03:50:04;31.73;;;12.43;;
68940;SDS011;55982;51.476;7.552;2023-07-02T03:52:29;30.13;;;12.25;;
68940;SDS011;55982;51.476;7.552;2023-07-02T03:54:55;26.50;;;12.60;;
68940;SDS011;55982;51.476;7.552;2023-07-02T03:57:20;23.52;;;11.90;;
68940;SDS011;55982;51.476;7.552;2023-07-02T03:59:45;29.80;;;13.25;;
68940;SDS011;55982;51.476;7.552;2023-07-02T04:02:11;29.80;;;12.80;;
68940;SDS011;55982;51.476;7.552;2023-07-02T04:04:36;31.02;;;13.45;;
68940;SDS011;55982;51.476;7.552;2023-07-02T04:07:02;24.48;;;13.52;;
68940;SDS011;55982;51.476;7.552;2023-07-02T04:09:27;35.15;;;13.68;;
68940;SDS011;55982;51.476;7.552;2023-07-02T04:11:53;31.23;;;13.95;;
68940;SDS011;55982;51.476;7.552;2023-07-02T04:14:18;36.17;;;15.85;;
68940;SDS011;55982;51.476;7.552;2023-07-02T04:16:43;26.27;;;14.25;;
68940;SDS011;55982;51.476;7.552;2023-07-02T04:19:10;31.80;;;15.30;;
68940;SDS011;55982;51.476;7.552;2023-07-02T04:21:35;36.38;;;14.57;;
68940;SDS011;55982;51.476;7.552;2023-07-02T04:24:01;35.63;;;15.57;;
68940;SDS011;55982;51.476;7.552;2023-07-02T04:26:26;32.60;;;15.38;;
68940;SDS011;55982;51.476;7.552;2023-07-02T04:28:53;33.30;;;14.82;;
68940;SDS011;55982;51.476;7.552;2023-07-02T04:31:19;29.92;;;15.43;;
68940;SDS011;55982;51.476;7.552;2023-07-02T04:33:44;32.00;;;14.75;;
68940;SDS011;55982;51.476;7.552;2023-07-02T04:36:10;32.30;;;14.98;;
68940;SDS011;55982;51.476;7.552;2023-07-02T04:38:35;27.88;;;14.70;;
68940;SDS011;55982;51.476;7.552;2023-07-02T04:41:00;33.28;;;15.68;;
68940;SDS011;55982;51.476;7.552;2023-07-02T04:43:30;28.75;;;14.38;;
68940;SDS011;55982;51.476;7.552;2023-07-02T04:45:56;35.50;;;16.05;;
68940;SDS011;55982;51.476;7.552;2023-07-02T04:48:22;35.97;;;15.85;;
68940;SDS011;55982;51.476;7.552;2023-07-02T04:50:48;31.73;;;15.25;;
68940;SDS011;55982;51.476;7.552;2023-07-02T04:53:13;30.08;;;15.13;;
68940;SDS011;55982;51.476;7.552;2023-07-02T04:55:38;36.58;;;16.63;;
68940;SDS011;55982;51.476;7.552;2023-07-02T04:58:04;32.95;;;15.82;;
68940;SDS011;55982;51.476;7.552;2023-07-02T05:00:29;31.90;;;16.02;;
68940;SDS011;55982;51.476;7.552;2023-07-02T05:02:54;33.67;;;17.23;;
68940;SDS011;55982;51.476;7.552;2023-07-02T05:05:20;33.15;;;17.40;;
68940;SDS011;55982;51.476;7.552;2023-07-02T05:07:45;33.03;;;15.90;;
68940;SDS011;55982;51.476;7.552;2023-07-02T05:10:11;37.83;;;17.45;;
68940;SDS011;55982;51.476;7.552;2023-07-02T05:12:36;33.67;;;17.83;;
68940;SDS011;55982;51.476;7.552;2023-07-02T05:15:01;36.20;;;17.17;;
68940;SDS011;55982;51.476;7.552;2023-07-02T05:17:27;31.60;;;16.55;;
68940;SDS011;55982;51.476;7.552;2023-07-02T05:19:53;38.60;;;17.48;;
68940;SDS011;55982;51.476;7.552;2023-07-02T05:22:18;33.20;;;16.75;;
68940;SDS011;55982;51.476;7.552;2023-07-02T05:24:44;34.22;;;17.80;;
68940;SDS011;55982;51.476;7.552;2023-07-02T05:27:11;37.60;;;17.50;;
68940;SDS011;55982;51.476;7.552;2023-07-02T05:29:36;30.73;;;16.45;;
68940;SDS011;55982;51.476;7.552;2023-07-02T05:32:02;37.83;;;18.08;;
68940;SDS011;55982;51.476;7.552;2023-07-02T05:34:27;34.70;;;18.40;;
68940;SDS011;55982;51.476;7.552;2023-07-02T05:36:52;36.15;;;18.05;;
68940;SDS011;55982;51.476;7.552;2023-07-02T05:39:18;35.42;;;17.80;;
68940;SDS011;55982;51.476;7.552;2023-07-02T05:41:43;39.03;;;19.08;;
68940;SDS011;55982;51.476;7.552;2023-07-02T05:44:08;39.80;;;17.65;;
68940;SDS011;55982;51.476;7.552;2023-07-02T05:46:34;37.90;;;19.17;;
68940;SDS011;55982;51.476;7.552;2023-07-02T05:48:59;40.55;;;19.98;;
68940;SDS011;55982;51.476;7.552;2023-07-02T05:51:25;42.90;;;19.13;;
68940;SDS011;55982;51.476;7.552;2023-07-02T05:53:50;39.97;;;20.33;;
68940;SDS011;55982;51.476;7.552;2023-07-02T05:56:16;39.13;;;18.85;;
68940;SDS011;55982;51.476;7.552;2023-07-02T05:58:42;40.92;;;20.05;;
68940;SDS011;55982;51.476;7.552;2023-07-02T06:01:08;39.22;;;19.50;;
68940;SDS011;55982;51.476;7.552;2023-07-02T06:03:33;47.55;;;19.83;;
68940;SDS011;55982;51.476;7.552;2023-07-02T06:05:59;33.58;;;18.45;;
68940;SDS011;55982;51.476;7.552;2023-07-02T06:08:24;37.90;;;19.25;;
68940;SDS011;55982;51.476;7.552;2023-07-02T06:10:49;37.53;;;18.40;;
68940;SDS011;55982;51.476;7.552;2023-07-02T06:13:15;36.28;;;18.17;;
68940;SDS011;55982;51.476;7.552;2023-07-02T06:15:41;38.30;;;18.00;;
68940;SDS011;55982;51.476;7.552;2023-07-02T06:18:06;38.20;;;17.80;;
68940;SDS011;55982;51.476;7.552;2023-07-02T06:20:32;37.85;;;17.70;;
68940;SDS011;55982;51.476;7.552;2023-07-02T06:22:57;36.35;;;16.73;;
68940;SDS011;55982;51.476;7.552;2023-07-02T06:25:22;39.63;;;17.30;;
68940;SDS011;55982;51.476;7.552;2023-07-02T06:27:48;38.60;;;17.75;;
68940;SDS011;55982;51.476;7.552;2023-07-02T06:30:13;36.53;;;16.02;;
68940;SDS011;55982;51.476;7.552;2023-07-02T06:32:39;35.28;;;15.65;;
68940;SDS011;55982;51.476;7.552;2023-07-02T06:35:04;37.90;;;15.57;;
68940;SDS011;55982;51.476;7.552;2023-07-02T06:37:33;36.85;;;15.82;;
68940;SDS011;55982;51.476;7.552;2023-07-02T06:39:58;30.77;;;14.88;;
68940;SDS011;55982;51.476;7.552;2023-07-02T06:42:24;29.60;;;15.55;;
68940;SDS011;55982;51.476;7.552;2023-07-02T06:44:50;32.33;;;14.85;;
68940;SDS011;55982;51.476;7.552;2023-07-02T06:47:15;33.67;;;15.13;;
68940;SDS011;55982;51.476;7.552;2023-07-02T06:49:41;33.83;;;15.48;;
68940;SDS011;55982;51.476;7.552;2023-07-02T06:52:06;33.15;;;15.15;;
68940;SDS011;55982;51.476;7.552;2023-07-02T06:54:31;32.00;;;14.68;;
68940;SDS011;55982;51.476;7.552;2023-07-02T06:56:57;31.70;;;14.90;;
68940;SDS011;55982;51.476;7.552;2023-07-02T06:59:22;31.77;;;13.80;;
68940;SDS011;55982;51.476;7.552;2023-07-02T07:01:49;22.65;;;11.98;;
68940;SDS011;55982;51.476;7.552;2023-07-02T07:04:14;28.13;;;13.18;;
68940;SDS011;55982;51.476;7.552;2023-07-02T07:06:40;28.85;;;11.98;;
68940;SDS011;55982;51.476;7.552;2023-07-02T07:09:06;32.47;;;12.85;;
68940;SDS011;55982;51.476;7.552;2023-07-02T07:11:31;28.42;;;12.65;;
68940;SDS011;55982;51.476;7.552;2023-07-02T07:13:57;26.60;;;12.65;;
68940;SDS011;55982;51.476;7.552;2023-07-02T07:16:22;25.48;;;12.25;;
68940;SDS011;55982;51.476;7.552;2023-07-02T07:18:48;29.27;;;12.55;;
68940;SDS011;55982;51.476;7.552;2023-07-02T07:21:13;24.55;;;11.30;;
68940;SDS011;55982;51.476;7.552;2023-07-02T07:23:39;23.33;;;11.40;;
68940;SDS011;55982;51.476;7.552;2023-07-02T07:26:05;23.20;;;11.63;;
68940;SDS011;55982;51.476;7.552;2023-07-02T07:28:31;22.77;;;11.50;;
68940;SDS011;55982;51.476;7.552;2023-07-02T07:30:56;27.02;;;11.65;;
68940;SDS011;55982;51.476;7.552;2023-07-02T07:33:22;21.23;;;11.40;;
68940;SDS011;55982;51.476;7.552;2023-07-02T07:35:47;28.15;;;12.73;;
68940;SDS011;55982;51.476;7.552;2023-07-02T07:38:13;29.65;;;11.88;;
68940;SDS011;55982;51.476;7.552;2023-07-02T07:40:39;21.67;;;11.75;;
68940;SDS011;55982;51.476;7.552;2023-07-02T07:43:05;26.05;;;12.50;;
68940;SDS011;55982;51.476;7.552;2023-07-02T07:45:30;25.10;;;11.60;;
68940;SDS011;55982;51.476;7.552;2023-07-02T07:47:55;29.10;;;11.40;;
68940;SDS011;55982;51.476;7.552;2023-07-02T07:50:21;28.10;;;13.50;;
68940;SDS011;55982;51.476;7.552;2023-07-02T07:52:47;23.95;;;11.68;;
68940;SDS011;55982;51.476;7.552;2023-07-02T07:55:13;24.95;;;11.80;;
68940;SDS011;55982;51.476;7.552;2023-07-02T07:57:38;23.90;;;12.50;;
68940;SDS011;55982;51.476;7.552;2023-07-02T08:00:04;24.52;;;11.57;;
68940;SDS011;55982;51.476;7.552;2023-07-02T08:02:32;24.80;;;11.20;;
68940;SDS011;55982;51.476;7.552;2023-07-02T08:04:58;24.35;;;11.55;;
68940;SDS011;55982;51.476;7.552;2023-07-02T08:07:23;26.98;;;12.43;;
68940;SDS011;55982;51.476;7.552;2023-07-02T08:09:52;28.23;;;12.10;;
68940;SDS011;55982;51.476;7.552;2023-07-02T08:12:17;26.50;;;11.63;;
68940;SDS011;55982;51.476;7.552;2023-07-02T08:14:42;27.55;;;11.32;;
68940;SDS011;55982;51.476;7.552;2023-07-02T08:17:08;25.02;;;11.73;;
68940;SDS011;55982;51.476;7.552;2023-07-02T08:19:33;30.10;;;11.82;;
68940;SDS011;55982;51.476;7.552;2023-07-02T08:21:58;23.85;;;12.02;;
68940;SDS011;55982;51.476;7.552;2023-07-02T08:24:24;21.98;;;10.18;;
68940;SDS011;55982;51.476;7.552;2023-07-02T08:26:49;26.17;;;10.95;;
68940;SDS011;55982;51.476;7.552;2023-07-02T08:29:15;21.85;;;11.13;;
68940;SDS011;55982;51.476;7.552;2023-07-02T08:31:40;21.25;;;10.07;;
68940;SDS011;55982;51.476;7.552;2023-07-02T08:34:06;18.40;;;10.00;;
68940;SDS011;55982;51.476;7.552;2023-07-02T08:36:32;23.42;;;11.73;;
68940;SDS011;55982;51.476;7.552;2023-07-02T08:38:57;23.27;;;11.32;;
68940;SDS011;55982;51.476;7.552;2023-07-02T08:41:22;27.35;;;11.48;;
68940;SDS011;55982;51.476;7.552;2023-07-02T08:43:48;23.63;;;11.43;;
68940;SDS011;55982;51.476;7.552;2023-07-02T08:46:15;25.17;;;11.40;;
68940;SDS011;55982;51.476;7.552;2023-07-02T08:48:43;28.77;;;11.43;;
68940;SDS011;55982;51.476;7.552;2023-07-02T08:51:09;23.67;;;11.57;;
68940;SDS011;55982;51.476;7.552;2023-07-02T08:53:35;20.08;;;11.80;;
68940;SDS011;55982;51.476;7.552;2023-07-02T08:56:01;27.35;;;11.65;;
68940;SDS011;55982;51.476;7.552;2023-07-02T08:58:27;23.08;;;11.25;;
68940;SDS011;55982;51.476;7.552;2023-07-02T09:01:06;23.58;;;10.95;;
68940;SDS011;55982;51.476;7.552;2023-07-02T09:03:35;24.20;;;11.40;;
68940;SDS011;55982;51.476;7.552;2023-07-02T09:06:08;20.55;;;10.68;;
68940;SDS011;55982;51.476;7.552;2023-07-02T09:08:34;21.67;;;10.80;;
68940;SDS011;55982;51.476;7.552;2023-07-02T09:11:10;24.25;;;10.48;;
68940;SDS011;55982;51.476;7.552;2023-07-02T09:16:47;22.17;;;10.75;;
68940;SDS011;55982;51.476;7.552;2023-07-02T09:19:07;24.10;;;10.93;;
68940;SDS011;55982;51.476;7.552;2023-07-02T09:21:43;20.05;;;9.98;;
68940;SDS011;55982;51.476;7.552;2023-07-02T09:24:14;23.23;;;10.60;;
68940;SDS011;55982;51.476;7.552;2023-07-02T09:26:51;23.60;;;9.90;;
68940;SDS011;55982;51.476;7.552;2023-07-02T09:29:21;20.83;;;9.57;;
68940;SDS011;55982;51.476;7.552;2023-07-02T09:31:48;21.02;;;9.93;;
68940;SDS011;55982;51.476;7.552;2023-07-02T09:34:14;21.05;;;8.70;;
68940;SDS011;55982;51.476;7.552;2023-07-02T09:36:40;18.02;;;8.60;;
68940;SDS011;55982;51.476;7.552;2023-07-02T09:39:18;16.70;;;8.20;;
68940;SDS011;55982;51.476;7.552;2023-07-02T09:41:47;23.35;;;8.48;;
68940;SDS011;55982;51.476;7.552;2023-07-02T09:44:14;17.20;;;8.13;;
68940;SDS011;55982;51.476;7.552;2023-07-02T09:46:41;18.58;;;8.43;;
68940;SDS011;55982;51.476;7.552;2023-07-02T09:49:18;14.70;;;8.48;;
68940;SDS011;55982;51.476;7.552;2023-07-02T09:51:45;19.42;;;8.43;;
68940;SDS011;55982;51.476;7.552;2023-07-02T09:54:11;15.40;;;7.82;;
68940;SDS011;55982;51.476;7.552;2023-07-02T09:56:37;16.17;;;8.77;;
68940;SDS011;55982;51.476;7.552;2023-07-02T09:59:03;27.45;;;8.63;;
68940;SDS011;55982;51.476;7.552;2023-07-02T10:01:28;17.88;;;8.25;;
68940;SDS011;55982;51.476;7.552;2023-07-02T10:03:53;17.40;;;8.48;;
68940;SDS011;55982;51.476;7.552;2023-07-02T10:06:19;18.55;;;8.40;;
68940;SDS011;55982;51.476;7.552;2023-07-02T10:08:56;16.60;;;7.18;;
68940;SDS011;55982;51.476;7.552;2023-07-02T10:11:32;18.25;;;8.10;;
68940;SDS011;55982;51.476;7.552;2023-07-02T10:14:01;15.32;;;7.97;;
68940;SDS011;55982;51.476;7.552;2023-07-02T10:16:26;17.08;;;8.15;;
68940;SDS011;55982;51.476;7.552;2023-07-02T10:18:53;16.23;;;8.27;;
68940;SDS011;55982;51.476;7.552;2023-07-02T10:21:19;16.95;;;8.02;;
68940;SDS011;55982;51.476;7.552;2023-07-02T10:23:45;18.98;;;8.50;;
68940;SDS011;55982;51.476;7.552;2023-07-02T10:26:13;19.02;;;8.38;;
68940;SDS011;55982;51.476;7.552;2023-07-02T10:28:40;15.45;;;7.95;;
68940;SDS011;55982;51.476;7.552;2023-07-02T10:31:17;16.77;;;9.00;;
68940;SDS011;55982;51.476;7.552;2023-07-02T10:33:46;16.20;;;8.48;;
68940;SDS011;55982;51.476;7.552;2023-07-02T10:36:19;18.05;;;8.82;;
68940;SDS011;55982;51.476;7.552;2023-07-02T10:38:45;19.23;;;8.95;;
68940;SDS011;55982;51.476;7.552;2023-07-02T10:41:12;17.88;;;9.48;;
68940;SDS011;55982;51.476;7.552;2023-07-02T10:43:47;21.98;;;10.25;;
68940;SDS011;55982;51.476;7.552;2023-07-02T10:46:18;20.05;;;8.75;;
68940;SDS011;55982;51.476;7.552;2023-07-02T10:48:50;17.38;;;8.50;;
68940;SDS011;55982;51.476;7.552;2023-07-02T10:51:25;21.80;;;8.95;;
68940;SDS011;55982;51.476;7.552;2023-07-02T10:53:59;19.90;;;9.35;;
68940;SDS011;55982;51.476;7.552;2023-07-02T10:56:26;21.77;;;9.52;;
68940;SDS011;55982;51.476;7.552;2023-07-02T10:58:53;17.70;;;8.82;;
68940;SDS011;55982;51.476;7.552;2023-07-02T11:01:28;20.52;;;9.20;;
68940;SDS011;55982;51.476;7.552;2023-07-02T11:03:56;20.00;;;9.50;;
68940;SDS011;55982;51.476;7.552;2023-07-02T11:06:25;16.35;;;8.23;;
68940;SDS011;55982;51.476;7.552;2023-07-02T11:08:52;17.00;;;7.93;;
68940;SDS011;55982;51.476;7.552;2023-07-02T11:11:17;17.63;;;8.10;;
68940;SDS011;55982;51.476;7.552;2023-07-02T11:13:46;23.48;;;7.90;;
68940;SDS011;55982;51.476;7.552;2023-07-02T11:18:44;16.50;;;7.30;;
68940;SDS011;55982;51.476;7.552;2023-07-02T11:21:10;17.00;;;7.35;;
68940;SDS011;55982;51.476;7.552;2023-07-02T11:23:35;18.05;;;8.05;;
68940;SDS011;55982;51.476;7.552;2023-07-02T11:26:02;17.77;;;8.00;;
68940;SDS011;55982;51.476;7.552;2023-07-02T11:28:28;14.15;;;7.88;;
68940;SDS011;55982;51.476;7.552;2023-07-02T11:30:56;17.33;;;9.13;;
68940;SDS011;55982;51.476;7.552;2023-07-02T11:33:35;17.70;;;8.93;;
68940;SDS011;55982;51.476;7.552;2023-07-02T11:36:01;13.80;;;7.88;;
68940;SDS011;55982;51.476;7.552;2023-07-02T11:38:27;20.92;;;9.15;;
68940;SDS011;55982;51.476;7.552;2023-07-02T11:40:53;17.98;;;8.93;;
68940;SDS011;55982;51.476;7.552;2023-07-02T11:43:18;20.48;;;8.80;;
68940;SDS011;55982;51.476;7.552;2023-07-02T11:45:43;19.08;;;8.68;;
68940;SDS011;55982;51.476;7.552;2023-07-02T11:48:09;17.20;;;8.80;;
68940;SDS011;55982;51.476;7.552;2023-07-02T11:50:34;19.02;;;8.93;;
68940;SDS011;55982;51.476;7.552;2023-07-02T11:52:59;15.73;;;8.10;;
68940;SDS011;55982;51.476;7.552;2023-07-02T11:55:25;19.20;;;8.90;;
68940;SDS011;55982;51.476;7.552;2023-07-02T11:57:50;21.33;;;9.50;;
68940;SDS011;55982;51.476;7.552;2023-07-02T12:00:16;16.17;;;8.50;;
68940;SDS011;55982;51.476;7.552;2023-07-02T12:02:41;16.45;;;8.63;;
68940;SDS011;55982;51.476;7.552;2023-07-02T12:05:07;19.27;;;8.18;;
68940;SDS011;55982;51.476;7.552;2023-07-02T12:07:33;19.23;;;8.93;;
68940;SDS011;55982;51.476;7.552;2023-07-02T12:09:59;16.98;;;8.18;;
68940;SDS011;55982;51.476;7.552;2023-07-02T12:12:25;14.90;;;7.68;;
68940;SDS011;55982;51.476;7.552;2023-07-02T12:14:50;16.33;;;7.72;;
68940;SDS011;55982;51.476;7.552;2023-07-02T12:17:15;16.60;;;7.68;;
68940;SDS011;55982;51.476;7.552;2023-07-02T12:19:41;14.40;;;7.30;;
68940;SDS011;55982;51.476;7.552;2023-07-02T12:22:06;14.02;;;6.97;;
68940;SDS011;55982;51.476;7.552;2023-07-02T12:24:35;15.48;;;7.15;;
68940;SDS011;55982;51.476;7.552;2023-07-02T12:27:00;13.85;;;6.45;;
68940;SDS011;55982;51.476;7.552;2023-07-02T12:29:26;15.15;;;7.10;;
68940;SDS011;55982;51.476;7.552;2023-07-02T12:31:51;15.25;;;6.35;;
68940;SDS011;55982;51.476;7.552;2023-07-02T12:34:16;16.58;;;7.10;;
68940;SDS011;55982;51.476;7.552;2023-07-02T12:36:42;14.75;;;6.85;;
68940;SDS011;55982;51.476;7.552;2023-07-02T12:39:07;13.40;;;6.80;;
68940;SDS011;55982;51.476;7.552;2023-07-02T12:41:33;15.27;;;6.63;;
68940;SDS011;55982;51.476;7.552;2023-07-02T12:43:58;16.40;;;6.78;;
68940;SDS011;55982;51.476;7.552;2023-07-02T12:46:24;14.13;;;7.53;;
68940;SDS011;55982;51.476;7.552;2023-07-02T12:48:49;16.05;;;7.13;;
68940;SDS011;55982;51.476;7.552;2023-07-02T12:51:15;17.95;;;6.45;;
68940;SDS011;55982;51.476;7.552;2023-07-02T12:53:40;14.48;;;6.47;;
68940;SDS011;55982;51.476;7.552;2023-07-02T12:56:07;14.18;;;6.80;;
68940;SDS011;55982;51.476;7.552;2023-07-02T12:58:33;18.10;;;6.18;;
68940;SDS011;55982;51.476;7.552;2023-07-02T13:00:58;13.55;;;6.72;;
68940;SDS011;55982;51.476;7.552;2023-07-02T13:03:23;13.52;;;6.40;;
68940;SDS011;55982;51.476;7.552;2023-07-02T13:05:50;13.23;;;5.90;;
68940;SDS011;55982;51.476;7.552;2023-07-02T13:08:15;14.55;;;5.80;;
68940;SDS011;55982;51.476;7.552;2023-07-02T13:10:41;13.07;;;6.53;;
68940;SDS011;55982;51.476;7.552;2023-07-02T13:13:06;15.48;;;6.25;;
68940;SDS011;55982;51.476;7.552;2023-07-02T13:15:31;11.82;;;5.60;;
68940;SDS011;55982;51.476;7.552;2023-07-02T13:17:57;12.43;;;5.63;;
68940;SDS011;55982;51.476;7.552;2023-07-02T13:20:22;13.63;;;5.97;;
68940;SDS011;55982;51.476;7.552;2023-07-02T13:22:48;14.02;;;6.38;;
68940;SDS011;55982;51.476;7.552;2023-07-02T13:25:13;14.10;;;7.13;;
68940;SDS011;55982;51.476;7.552;2023-07-02T13:27:38;13.25;;;6.07;;
68940;SDS011;55982;51.476;7.552;2023-07-02T13:30:04;13.05;;;6.25;;
68940;SDS011;55982;51.476;7.552;2023-07-02T13:32:30;18.40;;;6.57;;
68940;SDS011;55982;51.476;7.552;2023-07-02T13:34:55;18.00;;;6.43;;
68940;SDS011;55982;51.476;7.552;2023-07-02T13:37:21;11.27;;;6.25;;
68940;SDS011;55982;51.476;7.552;2023-07-02T13:39:46;12.90;;;6.75;;
68940;SDS011;55982;51.476;7.552;2023-07-02T13:42:12;13.10;;;6.25;;
68940;SDS011;55982;51.476;7.552;2023-07-02T13:44:38;11.45;;;5.93;;
68940;SDS011;55982;51.476;7.552;2023-07-02T13:47:03;15.45;;;6.47;;
68940;SDS011;55982;51.476;7.552;2023-07-02T13:49:29;11.73;;;6.20;;
68940;SDS011;55982;51.476;7.552;2023-07-02T13:51:55;15.43;;;6.95;;
68940;SDS011;55982;51.476;7.552;2023-07-02T13:54:20;12.70;;;6.78;;
68940;SDS011;55982;51.476;7.552;2023-07-02T13:56:46;14.23;;;6.13;;
68940;SDS011;55982;51.476;7.552;2023-07-02T13:59:12;12.85;;;6.38;;
68940;SDS011;55982;51.476;7.552;2023-07-02T14:01:38;18.85;;;7.72;;
68940;SDS011;55982;51.476;7.552;2023-07-02T14:04:03;16.65;;;7.57;;
68940;SDS011;55982;51.476;7.552;2023-07-02T14:06:29;14.93;;;7.53;;
68940;SDS011;55982;51.476;7.552;2023-07-02T14:08:54;15.30;;;6.50;;
68940;SDS011;55982;51.476;7.552;2023-07-02T14:11:20;13.43;;;7.05;;
68940;SDS011;55982;51.476;7.552;2023-07-02T14:13:46;18.80;;;7.18;;
68940;SDS011;55982;51.476;7.552;2023-07-02T14:16:12;13.45;;;6.18;;
68940;SDS011;55982;51.476;7.552;2023-07-02T14:18:38;15.77;;;6.72;;
68940;SDS011;55982;51.476;7.552;2023-07-02T14:21:03;15.93;;;7.40;;
68940;SDS011;55982;51.476;7.552;2023-07-02T14:23:29;14.65;;;7.47;;
68940;SDS011;55982;51.476;7.552;2023-07-02T14:25:54;12.43;;;7.18;;
68940;SDS011;55982;51.476;7.552;2023-07-02T14:28:19;16.52;;;8.05;;
68940;SDS011;55982;51.476;7.552;2023-07-02T14:30:45;13.45;;;7.55;;